createdAt,value
2023-03-16T00:00:05.046Z,4.48
2023-03-16T00:01:05.094Z,4.47
2023-03-16T00:02:05.210Z,4.50
2023-03-16T00:03:05.320Z,4.55
2023-03-16T00:04:05.380Z,4.47
2023-03-16T00:05:05.392Z,4.43
2023-03-16T00:06:05.483Z,4.47
2023-03-16T00:07:05.542Z,4.51
2023-03-16T00:08:05.659Z,4.47
2023-03-16T00:09:05.694Z,4.42
2023-03-16T00:10:06.088Z,4.29
2023-03-16T00:11:05.855Z,4.40
2023-03-16T00:12:05.938Z,4.38
2023-03-16T00:13:06.085Z,4.50
2023-03-16T00:14:06.064Z,4.31
2023-03-16T00:15:06.137Z,4.27
2023-03-16T00:16:06.226Z,4.20
2023-03-16T00:17:06.280Z,4.24
2023-03-16T00:18:06.344Z,4.25
2023-03-16T00:19:06.421Z,4.27
2023-03-16T00:20:06.491Z,4.16
2023-03-16T00:21:06.582Z,4.24
2023-03-16T00:22:06.627Z,4.23
2023-03-16T00:23:06.698Z,4.22
2023-03-16T00:24:06.767Z,4.15
2023-03-16T00:25:06.849Z,4.14
2023-03-16T00:26:06.929Z,4.18
2023-03-16T00:27:07.045Z,4.19
2023-03-16T00:28:07.062Z,4.14
2023-03-16T00:29:07.157Z,4.14
2023-03-16T00:30:07.225Z,4.18
2023-03-16T00:31:07.300Z,4.03
2023-03-16T00:32:07.391Z,4.09
2023-03-16T00:33:07.480Z,4.10
2023-03-16T00:34:07.507Z,3.97
2023-03-16T00:35:09.556Z,4.15
2023-03-16T00:36:07.657Z,4.04
2023-03-16T00:37:07.739Z,4.02
2023-03-16T00:38:07.786Z,4.05
2023-03-16T00:39:07.878Z,4.00
2023-03-16T00:40:07.950Z,4.00
2023-03-16T00:41:08.010Z,4.00
2023-03-16T00:42:08.085Z,3.96
2023-03-16T00:43:08.171Z,3.97
2023-03-16T00:44:08.238Z,3.98
2023-03-16T00:45:08.322Z,3.97
2023-03-16T01:07:10.615Z,3.67
2023-03-16T01:18:10.684Z,3.62
2023-03-16T01:19:10.745Z,3.59
2023-03-16T01:20:10.891Z,3.61
2023-03-16T01:21:10.892Z,3.67
2023-03-16T01:22:10.940Z,3.52
2023-03-16T01:23:11.011Z,3.60
2023-03-16T01:24:11.089Z,3.52
2023-03-16T01:25:11.156Z,3.61
2023-03-16T01:26:11.247Z,3.53
2023-03-16T01:27:11.294Z,3.59
2023-03-16T01:28:11.319Z,3.52
2023-03-16T01:29:11.377Z,3.49
2023-03-16T01:30:11.434Z,3.50
2023-03-16T01:31:11.557Z,3.46
2023-03-16T01:32:11.547Z,3.43
2023-03-16T01:33:11.578Z,3.54
2023-03-16T01:34:11.691Z,3.45
2023-03-16T01:35:11.702Z,3.40
2023-03-16T01:36:11.693Z,3.38
2023-03-16T01:38:11.821Z,3.46
2023-03-16T01:39:11.821Z,3.43
2023-03-16T01:40:11.871Z,3.42
2023-03-16T01:41:11.920Z,3.46
2023-03-16T01:42:11.970Z,3.47
2023-03-16T01:43:11.997Z,3.38
2023-03-16T01:44:12.052Z,3.37
2023-03-16T01:45:12.091Z,3.34
2023-03-16T01:46:12.162Z,3.34
2023-03-16T01:47:12.199Z,3.31
2023-03-16T01:48:12.196Z,3.28
2023-03-16T01:49:12.232Z,3.36
2023-03-16T01:50:12.259Z,3.32
2023-03-16T01:51:12.307Z,3.34
2023-03-16T01:52:12.345Z,3.36
2023-03-16T01:53:12.372Z,3.31
2023-03-16T01:54:12.425Z,3.32
2023-03-16T01:55:12.459Z,3.34
2023-03-16T01:56:12.514Z,3.30
2023-03-16T01:57:12.582Z,3.23
2023-03-16T01:58:12.650Z,3.25
2023-03-16T01:59:12.673Z,3.24
2023-03-16T02:00:12.726Z,3.21
2023-03-16T02:01:12.803Z,3.25
2023-03-16T02:02:12.837Z,3.24
2023-03-16T02:03:12.863Z,3.29
2023-03-16T02:04:12.920Z,3.14
2023-03-16T02:05:12.960Z,3.20
2023-03-16T02:06:13.068Z,3.18
2023-03-16T02:07:13.038Z,3.16
2023-03-16T02:08:13.084Z,3.17
2023-03-16T02:10:13.153Z,3.13
2023-03-16T02:12:13.203Z,3.13
2023-03-16T02:14:13.213Z,3.09
2023-03-16T02:15:13.286Z,3.12
2023-03-16T02:16:13.272Z,3.09
2023-03-16T02:17:13.303Z,3.12
2023-03-16T02:18:13.252Z,3.04
2023-03-16T02:19:13.249Z,3.10
2023-03-16T02:21:13.276Z,3.08
2023-03-16T02:22:13.282Z,3.01
2023-03-16T02:23:13.269Z,2.99
2023-03-16T02:24:13.272Z,2.98
2023-03-16T02:25:13.262Z,3.01
2023-03-16T02:26:13.324Z,3.03
2023-03-16T02:27:13.285Z,2.97
2023-03-16T02:28:13.287Z,3.04
2023-03-16T02:29:13.294Z,2.99
2023-03-16T02:30:13.299Z,2.99
2023-03-16T02:31:13.366Z,3.02
2023-03-16T02:32:13.326Z,2.97
2023-03-16T02:33:13.339Z,2.90
2023-03-16T06:45:21.524Z,3.30
2023-03-16T07:04:21.557Z,3.35
2023-03-16T08:10:20.675Z,3.45
2023-03-16T08:11:20.739Z,3.37
2023-03-16T08:23:21.284Z,3.14
2023-03-16T08:27:22.435Z,3.50
2023-03-16T08:28:21.710Z,3.51
2023-03-16T11:50:30.625Z,23.62
2023-03-16T11:51:30.677Z,22.93
2023-03-16T11:52:30.768Z,23.81
2023-03-16T11:53:30.795Z,23.91
2023-03-16T11:54:30.857Z,24.62
2023-03-16T11:55:31.097Z,25.72
2023-03-16T11:56:30.933Z,26.22
2023-03-16T11:57:31.068Z,26.57
2023-03-16T11:58:31.022Z,28.06
2023-03-16T11:59:31.060Z,28.65
2023-03-16T12:00:31.097Z,29.94
2023-03-16T12:02:31.289Z,30.86
2023-03-16T12:03:31.424Z,31.19
2023-03-16T12:04:31.263Z,32.77
2023-03-16T12:05:31.656Z,33.21
2023-03-16T12:06:31.344Z,34.17
2023-03-16T12:07:31.387Z,36.22
2023-03-16T12:08:31.430Z,37.54
2023-03-16T12:09:31.459Z,39.50
2023-03-16T12:10:31.485Z,40.15
2023-03-16T12:11:31.521Z,38.45
2023-03-16T12:12:31.551Z,36.28
2023-03-16T12:13:31.585Z,35.04
2023-03-16T12:14:31.607Z,32.49
2023-03-16T12:15:32.236Z,30.88
2023-03-16T12:16:46.381Z,28.83
2023-03-16T12:18:31.673Z,26.60
2023-03-16T12:33:31.708Z,17.27
2023-03-16T12:34:31.743Z,16.03
2023-03-16T12:35:32.277Z,16.08
2023-03-16T12:36:33.053Z,16.86
2023-03-16T12:37:31.891Z,17.22
2023-03-16T12:38:31.922Z,17.54
2023-03-16T12:39:31.956Z,18.04
2023-03-16T12:40:31.997Z,18.15
2023-03-16T12:41:32.049Z,17.58
2023-03-16T12:42:32.174Z,18.87
2023-03-16T12:43:32.187Z,19.19
2023-03-16T12:44:32.148Z,19.71
2023-03-16T12:45:32.330Z,19.83
2023-03-16T12:46:32.231Z,20.30
2023-03-16T12:47:32.276Z,20.85
2023-03-16T12:48:32.315Z,23.36
2023-03-16T12:49:32.363Z,27.37
2023-03-16T12:50:32.393Z,28.96
2023-03-16T12:51:32.433Z,31.08
2023-03-16T12:52:32.476Z,33.53
2023-03-16T12:53:32.522Z,35.38
2023-03-16T12:54:32.560Z,35.82
2023-03-16T12:55:32.599Z,34.99
2023-03-16T12:56:32.652Z,32.90
2023-03-16T13:06:35.809Z,31.52
2023-03-16T16:57:40.652Z,76.91
2023-03-16T16:58:40.705Z,77.88
2023-03-16T16:59:40.755Z,79.09
2023-03-16T17:00:40.824Z,80.39
2023-03-16T17:01:40.858Z,79.99
2023-03-16T17:02:42.154Z,82.94
2023-03-16T17:03:40.980Z,82.55
2023-03-16T17:04:41.081Z,83.09
2023-03-16T17:05:41.163Z,84.28
2023-03-16T17:06:41.161Z,83.05
2023-03-16T19:42:50.640Z,60.51
2023-03-16T19:43:50.693Z,59.69
2023-03-16T19:44:50.764Z,59.70
2023-03-16T19:45:50.875Z,59.11
2023-03-16T19:46:50.902Z,58.02
2023-03-16T19:47:51.023Z,57.95
2023-03-16T19:48:51.034Z,58.31
2023-03-16T19:49:51.092Z,58.16
2023-03-16T19:50:51.198Z,57.09
2023-03-16T19:51:51.236Z,57.35
2023-03-16T19:52:51.292Z,56.15
2023-03-16T19:53:51.353Z,56.22
2023-03-16T19:54:51.420Z,56.30
2023-03-16T19:55:51.480Z,56.51
2023-03-16T19:56:51.558Z,55.18
2023-03-16T19:57:51.626Z,54.11
2023-03-16T19:58:51.713Z,54.22
2023-03-16T19:59:51.768Z,53.72
2023-03-16T20:00:51.923Z,54.68
2023-03-16T20:01:52.464Z,53.34
2023-03-16T20:02:51.959Z,53.09
2023-03-16T20:03:52.124Z,53.02
2023-03-16T20:04:52.118Z,52.57
2023-03-16T20:05:52.241Z,52.72
2023-03-16T20:06:52.264Z,52.06
2023-03-16T20:07:52.395Z,51.54
2023-03-16T20:08:52.415Z,51.57
2023-03-16T20:09:52.585Z,51.17
2023-03-16T20:10:52.554Z,50.74
2023-03-16T20:11:52.635Z,51.03
2023-03-16T20:12:52.699Z,50.54
2023-03-16T20:13:52.767Z,50.33
2023-03-16T20:15:52.975Z,48.91
2023-03-16T22:14:00.659Z,23.54
2023-03-16T22:15:01.086Z,24.26
2023-03-16T22:16:00.822Z,24.34
2023-03-16T22:17:00.852Z,24.42
2023-03-16T22:18:00.919Z,24.17
2023-03-16T22:19:00.988Z,24.44
2023-03-16T22:20:01.132Z,23.89
2023-03-16T22:21:01.136Z,23.91
2023-03-16T22:22:01.209Z,23.34
2023-03-16T22:23:01.322Z,23.59
2023-03-16T22:24:01.317Z,23.25
2023-03-16T22:25:01.397Z,23.10
2023-03-16T22:26:01.453Z,22.68
2023-03-16T22:27:01.527Z,22.81
2023-03-16T22:28:01.584Z,22.96
2023-03-16T22:29:01.657Z,22.82
2023-03-16T22:30:01.737Z,22.34
2023-03-16T22:31:01.797Z,22.45
2023-03-16T22:32:01.857Z,22.27
2023-03-16T22:33:01.993Z,22.19
2023-03-16T22:34:02.004Z,22.28
2023-03-16T22:35:02.064Z,22.17
2023-03-16T22:36:02.533Z,21.63
2023-03-16T22:37:02.336Z,21.78
2023-03-16T22:38:02.340Z,21.62
2023-03-16T22:39:02.351Z,21.46
2023-03-16T22:40:02.408Z,21.25
2023-03-16T22:41:02.956Z,21.54
2023-03-16T22:42:02.551Z,20.99
2023-03-16T22:43:02.608Z,21.08
2023-03-16T22:45:02.771Z,20.95
2023-03-16T22:46:02.933Z,21.02
2023-03-16T22:47:02.877Z,20.65
